Time;durP1;ratioP1;P1;durP2;ratioP2;P2;SDS_P1;SDS_P2;PMS_P1;PMS_P2;Temp;Humidity;BMP_temperature;BMP_pressure;BME280_temperature;BME280_humidity;BME280_pressure;Samples;Min_cycle;Max_cycle;Signal;HPM_P1;HPM_P2
2022/01/17 00:01:41;;;;;;;11.73;3.90;;;;;;;;;;5057756;28;20525;-86
2022/01/17 00:04:10;;;;;;;15.83;4.50;;;;;;;;;;5058123;28;20829;-85
2022/01/17 00:06:36;;;;;;;7.23;2.50;;;;;;;;;;5057874;28;21162;-86
2022/01/17 00:09:03;;;;;;;17.57;3.00;;;;;;;;;;5056330;28;21608;-86
2022/01/17 00:11:29;;;;;;;11.60;3.10;;;;;;;;;;5040065;28;20501;-86
2022/01/17 00:13:57;;;;;;;16.13;2.90;;;;;;;;;;5037118;28;20460;-85
2022/01/17 00:16:32;;;;;;;11.87;2.57;;;;;;;;;;5038186;28;20901;-86
2022/01/17 00:21:43;;;;;;;14.63;3.30;;;;;;;;;;5040634;28;20463;-85
2022/01/17 00:24:10;;;;;;;10.73;3.13;;;;;;;;;;5039878;28;20488;-86
2022/01/17 00:26:36;;;;;;;8.77;2.20;;;;;;;;;;5040447;28;20536;-86
2022/01/17 00:29:03;;;;;;;14.63;4.57;;;;;;;;;;5040103;28;20448;-86
2022/01/17 00:31:29;;;;;;;13.93;2.70;;;;;;;;;;5033571;28;20506;-86
2022/01/17 00:33:55;;;;;;;17.40;3.67;;;;;;;;;;5036806;28;20495;-86
2022/01/17 00:36:21;;;;;;;14.47;2.73;;;;;;;;;;5041720;28;20476;-86
2022/01/17 00:38:49;;;;;;;18.40;4.47;;;;;;;;;;5040568;28;20466;-86
2022/01/17 00:41:15;;;;;;;8.57;3.27;;;;;;;;;;5039504;28;20479;-86
2022/01/17 00:43:42;;;;;;;22.40;4.57;;;;;;;;;;5041863;28;20488;-85
2022/01/17 00:46:09;;;;;;;23.30;3.77;;;;;;;;;;5048897;28;20476;-87
2022/01/17 00:48:35;;;;;;;18.33;4.00;;;;;;;;;;5048403;28;20470;-86
2022/01/17 00:51:01;;;;;;;10.97;2.83;;;;;;;;;;5052105;28;20464;-86
2022/01/17 00:53:28;;;;;;;16.50;3.80;;;;;;;;;;5049681;28;20501;-86
2022/01/17 00:55:56;;;;;;;10.83;3.20;;;;;;;;;;5048550;28;20520;-86
2022/01/17 00:58:22;;;;;;;22.83;4.17;;;;;;;;;;5050061;28;20456;-85
2022/01/17 01:00:49;;;;;;;22.13;3.63;;;;;;;;;;5052155;28;20467;-85
2022/01/17 01:03:15;;;;;;;24.30;4.23;;;;;;;;;;5049534;28;20451;-86
2022/01/17 01:05:41;;;;;;;18.00;3.70;;;;;;;;;;5045544;28;20461;-85
2022/01/17 01:08:07;;;;;;;16.97;4.30;;;;;;;;;;5040336;28;20467;-85
2022/01/17 01:10:34;;;;;;;15.97;3.80;;;;;;;;;;5040286;28;22055;-86
2022/01/17 01:13:02;;;;;;;19.40;4.80;;;;;;;;;;5042701;28;20453;-85
2022/01/17 01:15:46;;;;;;;14.73;3.50;;;;;;;;;;5054186;28;20484;-85
2022/01/17 01:18:16;;;;;;;20.23;3.47;;;;;;;;;;5060148;28;20592;-86
2022/01/17 01:21:18;;;;;;;19.97;5.10;;;;;;;;;;5058623;28;21012;-85
2022/01/17 01:29:14;;;;;;;15.80;4.90;;;;;;;;;;5059655;28;20450;-85
2022/01/17 01:31:45;;;;;;;16.70;5.00;;;;;;;;;;5059058;28;20470;-85
2022/01/17 01:34:12;;;;;;;17.60;3.23;;;;;;;;;;5061134;28;20459;-86
2022/01/17 01:36:39;;;;;;;19.30;3.70;;;;;;;;;;5062151;28;20547;-86
2022/01/17 01:39:06;;;;;;;16.67;3.90;;;;;;;;;;5058446;28;20555;-85
2022/01/17 01:41:36;;;;;;;15.60;4.67;;;;;;;;;;5058808;28;20483;-86
2022/01/17 01:44:03;;;;;;;14.47;4.60;;;;;;;;;;5059307;28;20862;-86
2022/01/17 01:46:31;;;;;;;15.87;3.67;;;;;;;;;;5060783;28;20466;-86
2022/01/17 01:48:57;;;;;;;13.13;3.30;;;;;;;;;;5059267;28;20517;-85
2022/01/17 01:51:23;;;;;;;11.17;3.60;;;;;;;;;;5041992;28;20479;-86
2022/01/17 01:53:49;;;;;;;14.17;4.70;;;;;;;;;;5045228;28;20444;-85
2022/01/17 01:56:15;;;;;;;15.13;4.10;;;;;;;;;;5041764;28;20480;-86
2022/01/17 01:58:42;;;;;;;20.60;4.73;;;;;;;;;;5042127;28;20460;-86
2022/01/17 02:01:09;;;;;;;9.80;3.40;;;;;;;;;;5042454;28;20488;-85
2022/01/17 02:03:36;;;;;;;13.20;4.63;;;;;;;;;;5043632;28;20454;-86
2022/01/17 02:06:02;;;;;;;17.77;4.10;;;;;;;;;;5043449;28;20835;-86
2022/01/17 02:08:30;;;;;;;21.07;4.60;;;;;;;;;;5042067;28;20494;-86
2022/01/17 02:10:56;;;;;;;13.20;3.73;;;;;;;;;;5042139;28;21026;-86
2022/01/17 02:13:23;;;;;;;22.30;4.57;;;;;;;;;;5045400;28;20510;-86
2022/01/17 02:15:49;;;;;;;15.43;4.10;;;;;;;;;;5041114;28;20526;-86
2022/01/17 02:18:22;;;;;;;20.20;3.90;;;;;;;;;;5042509;28;20546;-85
2022/01/17 02:21:10;;;;;;;21.03;3.87;;;;;;;;;;5042208;28;20487;-85
2022/01/17 02:23:36;;;;;;;13.10;3.40;;;;;;;;;;5043763;28;20466;-85
2022/01/17 02:26:02;;;;;;;24.73;3.30;;;;;;;;;;5043328;28;20492;-85
2022/01/17 02:28:29;;;;;;;25.40;4.00;;;;;;;;;;5045898;28;20463;-85
2022/01/17 02:30:55;;;;;;;11.67;3.73;;;;;;;;;;5042278;28;20982;-85
2022/01/17 02:33:21;;;;;;;14.10;4.13;;;;;;;;;;5043891;28;20457;-84
2022/01/17 02:35:50;;;;;;;17.97;6.63;;;;;;;;;;5044899;28;21118;-85
2022/01/17 02:38:16;;;;;;;18.63;4.10;;;;;;;;;;5046579;28;20475;-85
2022/01/17 02:40:43;;;;;;;19.70;3.57;;;;;;;;;;5045463;28;20484;-85
2022/01/17 02:43:09;;;;;;;13.20;3.03;;;;;;;;;;5044490;28;20461;-85
2022/01/17 02:45:38;;;;;;;17.17;3.20;;;;;;;;;;5044017;28;20888;-86
2022/01/17 02:48:05;;;;;;;15.17;3.83;;;;;;;;;;5045744;28;20547;-85
2022/01/17 02:53:01;;;;;;;14.80;4.20;;;;;;;;;;5002961;28;21010;-80
2022/01/17 02:55:27;;;;;;;14.87;3.50;;;;;;;;;;5004151;28;20506;-81
2022/01/17 02:57:53;;;;;;;10.03;3.93;;;;;;;;;;5006142;28;20509;-82
2022/01/17 03:00:20;;;;;;;17.63;4.40;;;;;;;;;;5002425;28;20474;-83
2022/01/17 03:02:49;;;;;;;12.27;3.93;;;;;;;;;;5005715;28;20497;-83
2022/01/17 03:05:15;;;;;;;13.97;4.07;;;;;;;;;;5004057;28;20508;-82
2022/01/17 03:07:42;;;;;;;18.70;4.00;;;;;;;;;;5006300;28;20456;-79
2022/01/17 03:10:18;;;;;;;19.80;3.80;;;;;;;;;;5005288;28;20523;-83
2022/01/17 03:12:44;;;;;;;10.80;2.80;;;;;;;;;;5006661;28;20472;-84
2022/01/17 03:15:13;;;;;;;23.33;4.50;;;;;;;;;;5003026;28;21073;-85
2022/01/17 03:17:39;;;;;;;16.30;3.13;;;;;;;;;;5005295;28;20943;-85
2022/01/17 03:20:06;;;;;;;17.60;2.60;;;;;;;;;;5004656;28;20478;-86
2022/01/17 03:22:33;;;;;;;11.87;3.00;;;;;;;;;;5005734;28;20541;-82
2022/01/17 03:24:59;;;;;;;16.83;4.33;;;;;;;;;;5004238;28;20827;-83
2022/01/17 03:27:26;;;;;;;19.10;4.43;;;;;;;;;;5006921;28;20496;-83
2022/01/17 03:29:53;;;;;;;17.87;4.47;;;;;;;;;;5003958;28;20475;-82
2022/01/17 03:32:19;;;;;;;28.40;3.93;;;;;;;;;;5004630;28;20505;-83
2022/01/17 03:34:45;;;;;;;16.20;4.10;;;;;;;;;;5003027;28;20529;-82
2022/01/17 03:37:11;;;;;;;10.03;3.40;;;;;;;;;;5005488;28;20465;-83
2022/01/17 03:39:38;;;;;;;16.23;3.30;;;;;;;;;;5004831;28;20481;-82
2022/01/17 03:42:04;;;;;;;16.80;3.70;;;;;;;;;;5004922;28;20465;-82
2022/01/17 03:44:31;;;;;;;19.40;4.03;;;;;;;;;;5004860;28;20532;-82
2022/01/17 03:46:58;;;;;;;19.40;3.10;;;;;;;;;;5004845;28;20472;-84
2022/01/17 03:49:24;;;;;;;20.77;4.90;;;;;;;;;;5005901;28;20469;-82
2022/01/17 03:51:50;;;;;;;22.50;4.43;;;;;;;;;;5006449;28;20551;-83
2022/01/17 03:54:16;;;;;;;22.40;3.60;;;;;;;;;;5005790;28;20462;-84
2022/01/17 03:56:43;;;;;;;11.63;3.90;;;;;;;;;;5003650;28;20446;-83
2022/01/17 03:59:11;;;;;;;19.23;3.23;;;;;;;;;;5005755;28;20459;-81
2022/01/17 04:01:40;;;;;;;14.50;3.80;;;;;;;;;;5003385;28;20497;-84
2022/01/17 04:04:06;;;;;;;18.00;4.20;;;;;;;;;;5005386;28;20502;-82
2022/01/17 04:06:33;;;;;;;17.40;3.70;;;;;;;;;;5004484;28;20450;-83
2022/01/17 04:08:59;;;;;;;17.63;3.43;;;;;;;;;;5005162;28;20546;-84
2022/01/17 04:11:25;;;;;;;14.70;3.87;;;;;;;;;;5005427;28;21057;-85
2022/01/17 04:13:52;;;;;;;20.73;4.10;;;;;;;;;;5004802;28;20482;-81
2022/01/17 04:16:18;;;;;;;15.73;3.97;;;;;;;;;;5004833;28;20466;-84
2022/01/17 04:18:45;;;;;;;21.90;4.33;;;;;;;;;;5002643;28;20465;-83
2022/01/17 04:21:12;;;;;;;16.57;4.33;;;;;;;;;;5003733;28;20470;-84
2022/01/17 04:23:38;;;;;;;16.83;3.00;;;;;;;;;;5004084;28;20476;-85
2022/01/17 04:26:04;;;;;;;23.93;3.17;;;;;;;;;;5005220;28;20533;-84
2022/01/17 04:28:31;;;;;;;19.23;3.30;;;;;;;;;;5005676;28;20886;-85
2022/01/17 04:30:59;;;;;;;16.40;3.00;;;;;;;;;;5005915;28;20573;-85
2022/01/17 04:33:25;;;;;;;16.63;5.00;;;;;;;;;;5004368;28;20467;-84
2022/01/17 04:35:53;;;;;;;16.23;3.73;;;;;;;;;;5005152;28;21088;-82
2022/01/17 04:38:19;;;;;;;20.60;4.53;;;;;;;;;;5002821;28;20459;-83
2022/01/17 04:40:47;;;;;;;20.60;4.13;;;;;;;;;;5004343;28;20482;-85
2022/01/17 04:43:18;;;;;;;18.83;3.77;;;;;;;;;;5005746;28;20524;-84
2022/01/17 04:45:45;;;;;;;9.03;2.60;;;;;;;;;;5005132;28;20470;-85
2022/01/17 04:48:11;;;;;;;20.83;3.50;;;;;;;;;;5006096;28;20450;-85
2022/01/17 04:50:38;;;;;;;15.70;3.07;;;;;;;;;;5006232;28;20488;-82
2022/01/17 04:53:07;;;;;;;14.53;3.20;;;;;;;;;;5001236;28;20458;-83
2022/01/17 04:55:36;;;;;;;14.73;4.10;;;;;;;;;;5001456;28;20525;-82
2022/01/17 04:58:02;;;;;;;15.73;4.40;;;;;;;;;;5002385;28;20466;-84
2022/01/17 05:00:28;;;;;;;12.83;3.10;;;;;;;;;;4999282;28;20477;-84
2022/01/17 05:02:55;;;;;;;15.50;4.23;;;;;;;;;;5000811;28;20449;-84
2022/01/17 05:05:21;;;;;;;11.17;2.70;;;;;;;;;;5001040;28;20544;-83
2022/01/17 05:07:48;;;;;;;14.47;4.37;;;;;;;;;;5000792;28;20504;-84
2022/01/17 05:10:16;;;;;;;13.30;3.27;;;;;;;;;;4998760;28;20569;-81
2022/01/17 05:12:44;;;;;;;12.23;3.93;;;;;;;;;;5002233;28;20527;-80
2022/01/17 05:15:19;;;;;;;13.43;4.10;;;;;;;;;;4999817;28;21024;-83
2022/01/17 05:17:57;;;;;;;14.97;3.83;;;;;;;;;;5001983;28;20886;-81
2022/01/17 05:20:23;;;;;;;13.50;3.43;;;;;;;;;;5001131;28;20474;-83
2022/01/17 05:22:49;;;;;;;18.87;4.50;;;;;;;;;;5001680;28;20541;-84
2022/01/17 05:25:17;;;;;;;18.10;5.03;;;;;;;;;;5005590;28;20477;-80
2022/01/17 05:27:43;;;;;;;16.50;3.00;;;;;;;;;;5003541;28;20457;-82
2022/01/17 05:30:13;;;;;;;15.63;4.23;;;;;;;;;;5004219;28;20485;-83
2022/01/17 05:32:39;;;;;;;18.97;4.73;;;;;;;;;;5000243;28;21506;-82
2022/01/17 05:35:06;;;;;;;18.63;4.53;;;;;;;;;;5006289;28;20482;-81
2022/01/17 05:37:32;;;;;;;22.53;5.30;;;;;;;;;;5007171;28;20478;-84
2022/01/17 05:39:58;;;;;;;9.80;3.83;;;;;;;;;;5001867;28;20482;-80
2022/01/17 05:42:26;;;;;;;14.90;3.40;;;;;;;;;;5005038;28;20473;-83
2022/01/17 05:44:53;;;;;;;14.03;3.90;;;;;;;;;;5003797;28;20567;-82
2022/01/17 05:47:19;;;;;;;11.50;3.77;;;;;;;;;;5001626;28;20489;-82
2022/01/17 05:49:45;;;;;;;22.60;4.50;;;;;;;;;;5003654;28;20523;-82
2022/01/17 05:52:12;;;;;;;14.10;4.00;;;;;;;;;;5003242;28;20493;-81
2022/01/17 05:54:38;;;;;;;15.43;4.10;;;;;;;;;;5004841;28;20527;-81
2022/01/17 05:57:05;;;;;;;29.40;5.70;;;;;;;;;;5006234;28;20488;-82
2022/01/17 05:59:32;;;;;;;12.60;4.03;;;;;;;;;;5003935;28;21142;-79
2022/01/17 06:01:59;;;;;;;9.97;3.70;;;;;;;;;;4994946;28;21007;-85
2022/01/17 06:04:25;;;;;;;8.90;4.17;;;;;;;;;;5003782;28;20901;-83
2022/01/17 06:06:52;;;;;;;15.20;3.33;;;;;;;;;;5001896;28;20487;-81
2022/01/17 06:09:18;;;;;;;19.53;5.13;;;;;;;;;;5003230;28;20462;-84
2022/01/17 06:11:44;;;;;;;13.30;3.90;;;;;;;;;;5006155;28;20468;-84
2022/01/17 06:14:15;;;;;;;22.90;4.23;;;;;;;;;;5003449;28;20473;-80
2022/01/17 06:16:43;;;;;;;22.87;6.30;;;;;;;;;;5001584;28;20466;-80
2022/01/17 06:19:09;;;;;;;27.93;4.60;;;;;;;;;;5002723;28;20449;-81
2022/01/17 06:21:35;;;;;;;17.03;4.47;;;;;;;;;;5003674;28;20485;-81
2022/01/17 06:24:04;;;;;;;15.50;4.00;;;;;;;;;;5005842;28;21240;-80
2022/01/17 06:26:30;;;;;;;39.60;4.97;;;;;;;;;;5000685;28;20489;-79
2022/01/17 06:28:57;;;;;;;16.30;3.77;;;;;;;;;;5003527;28;20985;-79
2022/01/17 06:31:23;;;;;;;12.10;3.73;;;;;;;;;;5001585;28;21076;-81
2022/01/17 06:33:50;;;;;;;15.97;3.63;;;;;;;;;;5005119;28;20977;-82
2022/01/17 06:36:17;;;;;;;19.17;3.43;;;;;;;;;;5004217;28;21010;-84
2022/01/17 06:38:43;;;;;;;14.70;4.30;;;;;;;;;;4998055;28;20516;-80
2022/01/17 06:41:09;;;;;;;12.63;5.07;;;;;;;;;;5002873;28;20510;-81
2022/01/17 06:43:35;;;;;;;13.60;3.80;;;;;;;;;;4999809;28;20461;-83
2022/01/17 06:46:02;;;;;;;16.83;5.37;;;;;;;;;;5003429;28;20481;-83
2022/01/17 06:48:28;;;;;;;18.07;3.87;;;;;;;;;;5001136;28;20525;-81
2022/01/17 06:50:56;;;;;;;17.77;5.10;;;;;;;;;;5002395;28;20539;-79
2022/01/17 06:53:26;;;;;;;18.67;4.60;;;;;;;;;;5001993;28;20826;-83
2022/01/17 06:55:52;;;;;;;21.90;4.10;;;;;;;;;;5003676;28;20470;-83
2022/01/17 06:58:19;;;;;;;19.77;4.53;;;;;;;;;;5002853;28;20449;-81
2022/01/17 07:00:45;;;;;;;18.93;5.07;;;;;;;;;;5003073;28;20585;-83
2022/01/17 07:03:12;;;;;;;14.00;3.77;;;;;;;;;;5002733;28;20549;-81
2022/01/17 07:05:38;;;;;;;14.83;4.50;;;;;;;;;;5004208;28;20484;-81
2022/01/17 07:08:06;;;;;;;21.80;5.27;;;;;;;;;;5005008;28;20466;-79
2022/01/17 07:10:32;;;;;;;29.73;5.47;;;;;;;;;;5002553;28;21022;-80
2022/01/17 07:12:58;;;;;;;24.57;5.57;;;;;;;;;;5003582;28;20458;-79
2022/01/17 07:15:24;;;;;;;20.73;6.13;;;;;;;;;;5002356;28;20474;-79
2022/01/17 07:17:51;;;;;;;20.53;7.10;;;;;;;;;;5005720;28;20532;-81
2022/01/17 07:20:17;;;;;;;21.80;5.23;;;;;;;;;;5004817;28;20466;-85
2022/01/17 07:22:44;;;;;;;21.93;5.67;;;;;;;;;;5002027;28;20470;-80
2022/01/17 07:25:12;;;;;;;20.93;6.20;;;;;;;;;;5003267;28;20483;-81
2022/01/17 07:27:40;;;;;;;17.73;4.83;;;;;;;;;;5003204;28;20516;-83
2022/01/17 07:30:07;;;;;;;24.57;5.37;;;;;;;;;;5002539;28;20565;-81
2022/01/17 07:32:33;;;;;;;26.83;5.23;;;;;;;;;;5004038;28;20668;-81
2022/01/17 07:34:59;;;;;;;17.43;4.57;;;;;;;;;;5003092;28;20473;-81
2022/01/17 07:37:26;;;;;;;23.27;5.87;;;;;;;;;;5003371;28;20944;-81
2022/01/17 07:39:52;;;;;;;16.83;4.50;;;;;;;;;;5003705;28;20475;-81
2022/01/17 07:42:20;;;;;;;23.17;6.30;;;;;;;;;;5004283;28;20514;-82
2022/01/17 07:44:53;;;;;;;16.03;5.03;;;;;;;;;;5001491;28;20536;-81
2022/01/17 07:47:25;;;;;;;24.73;6.40;;;;;;;;;;5003427;28;20510;-80
2022/01/17 07:49:51;;;;;;;25.67;5.73;;;;;;;;;;5003648;28;20498;-80
2022/01/17 07:52:18;;;;;;;22.53;5.20;;;;;;;;;;5003689;28;20655;-81
2022/01/17 07:54:47;;;;;;;17.83;5.53;;;;;;;;;;5001712;28;20469;-79
2022/01/17 07:57:14;;;;;;;24.77;5.40;;;;;;;;;;5004632;28;20462;-81
2022/01/17 07:59:42;;;;;;;30.87;6.40;;;;;;;;;;5002046;28;20528;-82
2022/01/17 08:02:08;;;;;;;20.30;5.80;;;;;;;;;;5003998;28;20497;-83
2022/01/17 08:04:34;;;;;;;20.60;6.40;;;;;;;;;;5002684;28;20497;-80
2022/01/17 08:07:00;;;;;;;28.80;6.57;;;;;;;;;;5004220;28;20741;-85
2022/01/17 08:09:29;;;;;;;22.67;6.13;;;;;;;;;;5002252;28;20457;-80
2022/01/17 08:11:56;;;;;;;23.70;5.57;;;;;;;;;;5002869;28;20477;-80
2022/01/17 08:14:23;;;;;;;24.47;5.30;;;;;;;;;;5002554;28;20512;-81
2022/01/17 08:16:51;;;;;;;27.57;8.23;;;;;;;;;;5003386;28;20525;-80
2022/01/17 08:19:17;;;;;;;24.50;6.33;;;;;;;;;;5002881;28;20446;-82
2022/01/17 08:21:43;;;;;;;27.23;5.47;;;;;;;;;;5001360;28;20561;-81
2022/01/17 08:24:09;;;;;;;26.90;6.40;;;;;;;;;;4998872;28;20517;-83
2022/01/17 08:26:42;;;;;;;30.07;6.20;;;;;;;;;;5003593;28;20493;-83
2022/01/17 08:29:08;;;;;;;28.17;7.10;;;;;;;;;;5004168;28;20455;-82
2022/01/17 08:31:35;;;;;;;23.33;5.90;;;;;;;;;;5002970;28;20552;-81
2022/01/17 08:34:02;;;;;;;25.60;5.87;;;;;;;;;;5001880;28;20968;-83
2022/01/17 08:36:28;;;;;;;23.13;6.90;;;;;;;;;;5000375;28;21064;-80
2022/01/17 08:38:55;;;;;;;23.33;7.53;;;;;;;;;;5003607;28;20450;-82
2022/01/17 08:41:21;;;;;;;36.73;7.00;;;;;;;;;;5001145;28;20482;-81
2022/01/17 08:43:48;;;;;;;33.17;6.83;;;;;;;;;;5001558;28;20454;-80
2022/01/17 08:46:14;;;;;;;32.20;7.20;;;;;;;;;;5000002;28;20470;-83
2022/01/17 08:48:40;;;;;;;27.63;9.37;;;;;;;;;;5003909;28;20472;-83
2022/01/17 08:51:08;;;;;;;31.93;6.77;;;;;;;;;;5015908;23;20483;-85
2022/01/17 08:53:34;;;;;;;21.23;7.00;;;;;;;;;;4983334;28;20444;-85
2022/01/17 08:56:01;;;;;;;38.23;7.80;;;;;;;;;;4979999;28;20517;-86
2022/01/17 08:58:27;;;;;;;32.73;7.03;;;;;;;;;;4982027;28;20467;-86
2022/01/17 09:00:56;;;;;;;34.23;9.93;;;;;;;;;;4997036;28;20491;-86
2022/01/17 09:03:23;;;;;;;39.37;8.47;;;;;;;;;;5003799;28;20988;-85
2022/01/17 09:05:50;;;;;;;27.80;8.60;;;;;;;;;;5001597;28;21012;-86
2022/01/17 09:08:19;;;;;;;30.97;7.30;;;;;;;;;;5003721;28;20454;-86
2022/01/17 09:10:45;;;;;;;39.93;7.53;;;;;;;;;;5005176;28;20494;-86
2022/01/17 09:13:12;;;;;;;31.33;7.70;;;;;;;;;;5008260;28;20453;-86
2022/01/17 09:15:38;;;;;;;39.27;7.50;;;;;;;;;;5007844;28;20507;-86
2022/01/17 09:18:05;;;;;;;40.27;7.73;;;;;;;;;;5008528;28;20451;-85
2022/01/17 09:20:34;;;;;;;26.17;8.80;;;;;;;;;;5010090;28;20472;-85
2022/01/17 09:23:01;;;;;;;24.80;7.50;;;;;;;;;;5009284;28;20481;-85
2022/01/17 09:25:28;;;;;;;32.17;7.67;;;;;;;;;;5007279;28;20466;-85
2022/01/17 09:27:55;;;;;;;40.37;9.57;;;;;;;;;;5008803;28;20482;-85
2022/01/17 09:30:21;;;;;;;34.37;8.00;;;;;;;;;;5009524;28;20465;-85
2022/01/17 09:32:47;;;;;;;41.83;8.93;;;;;;;;;;5009561;28;20478;-85
2022/01/17 09:35:13;;;;;;;30.53;7.43;;;;;;;;;;5008350;28;20559;-86
2022/01/17 09:37:40;;;;;;;40.87;8.87;;;;;;;;;;5009801;28;20505;-86
2022/01/17 09:40:07;;;;;;;42.00;8.40;;;;;;;;;;5007341;28;20471;-86
2022/01/17 09:42:36;;;;;;;50.73;10.07;;;;;;;;;;5001997;28;20482;-84
2022/01/17 09:45:03;;;;;;;33.83;8.77;;;;;;;;;;5005394;28;20469;-86
2022/01/17 09:47:31;;;;;;;26.40;8.33;;;;;;;;;;5005663;28;20509;-86
2022/01/17 09:49:57;;;;;;;44.53;11.20;;;;;;;;;;5003886;28;20470;-86
2022/01/17 09:52:35;;;;;;;42.30;8.90;;;;;;;;;;5004949;28;20540;-86
2022/01/17 09:55:04;;;;;;;37.53;8.73;;;;;;;;;;5006281;28;21967;-86
2022/01/17 09:57:31;;;;;;;30.53;8.57;;;;;;;;;;5006851;28;20462;-86
2022/01/17 09:59:59;;;;;;;32.53;7.70;;;;;;;;;;5008465;28;20573;-86
2022/01/17 10:02:25;;;;;;;39.53;7.40;;;;;;;;;;5008428;28;21101;-86
2022/01/17 10:04:52;;;;;;;24.80;7.30;;;;;;;;;;5007856;28;21070;-86
2022/01/17 10:07:18;;;;;;;21.73;7.37;;;;;;;;;;5009423;28;20920;-86
2022/01/17 10:09:54;;;;;;;35.53;7.27;;;;;;;;;;5005132;28;20470;-85
2022/01/17 10:12:20;;;;;;;36.47;6.97;;;;;;;;;;5006847;28;20546;-86
2022/01/17 10:14:57;;;;;;;30.63;8.37;;;;;;;;;;5007821;28;20474;-85
2022/01/17 10:17:41;;;;;;;41.23;10.67;;;;;;;;;;5009610;28;20533;-86
2022/01/17 10:20:09;;;;;;;42.07;9.10;;;;;;;;;;5008625;28;20839;-85
2022/01/17 10:22:45;;;;;;;36.60;8.50;;;;;;;;;;5008798;28;20549;-86
2022/01/17 10:25:20;;;;;;;44.73;8.80;;;;;;;;;;5008339;28;20484;-86
2022/01/17 10:35:56;;;;;;;35.47;7.60;;;;;;;;;;5007368;28;20535;-85
2022/01/17 10:38:24;;;;;;;41.83;7.60;;;;;;;;;;5006298;28;20632;-86
2022/01/17 10:40:53;;;;;;;36.97;8.50;;;;;;;;;;5002448;28;20569;-87
2022/01/17 10:43:20;;;;;;;33.13;7.90;;;;;;;;;;5007961;28;20806;-85
2022/01/17 10:45:46;;;;;;;34.30;10.13;;;;;;;;;;5006757;28;20446;-86
2022/01/17 10:48:14;;;;;;;43.40;8.93;;;;;;;;;;5004953;28;20485;-86
2022/01/17 10:50:42;;;;;;;32.73;6.93;;;;;;;;;;5007948;28;20458;-85
2022/01/17 10:53:09;;;;;;;33.77;8.87;;;;;;;;;;5007851;28;20488;-86
2022/01/17 10:55:37;;;;;;;34.93;8.17;;;;;;;;;;5008511;28;20455;-85
2022/01/17 10:58:04;;;;;;;44.27;10.33;;;;;;;;;;5006789;28;20459;-86
2022/01/17 11:00:32;;;;;;;46.30;9.13;;;;;;;;;;5007792;28;20830;-85
2022/01/17 11:02:59;;;;;;;27.00;7.33;;;;;;;;;;5007120;28;20494;-85
2022/01/17 11:05:28;;;;;;;33.73;7.20;;;;;;;;;;5005765;28;20955;-86
2022/01/17 11:07:56;;;;;;;44.20;8.00;;;;;;;;;;5007494;28;21069;-85
2022/01/17 11:10:23;;;;;;;38.20;9.00;;;;;;;;;;5007305;28;20458;-85
2022/01/17 11:12:50;;;;;;;46.03;9.47;;;;;;;;;;5005332;28;20533;-85
2022/01/17 11:15:17;;;;;;;31.23;8.00;;;;;;;;;;5007964;28;20454;-85
2022/01/17 11:17:49;;;;;;;35.03;7.50;;;;;;;;;;5006341;28;20464;-85
2022/01/17 11:20:16;;;;;;;36.17;9.30;;;;;;;;;;5006180;28;20498;-85
2022/01/17 11:22:45;;;;;;;30.07;8.17;;;;;;;;;;5007025;28;20501;-85
2022/01/17 11:25:12;;;;;;;32.80;7.03;;;;;;;;;;5010157;28;20963;-85
2022/01/17 11:27:38;;;;;;;34.33;8.20;;;;;;;;;;5004829;28;21072;-85
2022/01/17 11:30:05;;;;;;;33.90;7.03;;;;;;;;;;5005546;28;20446;-86
2022/01/17 11:32:32;;;;;;;29.50;9.57;;;;;;;;;;5004094;28;20491;-86
2022/01/17 11:34:59;;;;;;;27.00;6.27;;;;;;;;;;5007413;28;20457;-85
2022/01/17 11:37:26;;;;;;;32.30;7.07;;;;;;;;;;5005515;28;20466;-85
2022/01/17 11:39:55;;;;;;;22.63;5.60;;;;;;;;;;5006398;28;20451;-86
2022/01/17 11:42:28;;;;;;;39.10;7.90;;;;;;;;;;5002860;28;20474;-85
2022/01/17 11:44:54;;;;;;;26.03;5.47;;;;;;;;;;5006394;28;20450;-86
2022/01/17 11:47:35;;;;;;;20.90;6.27;;;;;;;;;;5005606;28;20485;-85
2022/01/17 11:50:17;;;;;;;22.70;4.60;;;;;;;;;;5006104;28;20802;-86
2022/01/17 11:52:43;;;;;;;13.57;4.50;;;;;;;;;;5004887;28;20485;-86
2022/01/17 11:55:10;;;;;;;26.47;6.00;;;;;;;;;;5007394;28;20458;-85
2022/01/17 11:57:37;;;;;;;28.00;6.10;;;;;;;;;;5006233;28;20474;-86
2022/01/17 12:00:05;;;;;;;17.70;4.33;;;;;;;;;;5005621;28;20454;-85
2022/01/17 12:02:36;;;;;;;17.40;4.90;;;;;;;;;;5005634;28;20494;-86
2022/01/17 12:05:21;;;;;;;16.47;5.37;;;;;;;;;;5006697;28;20441;-86
2022/01/17 12:07:50;;;;;;;19.03;5.07;;;;;;;;;;5004948;28;20474;-85
2022/01/17 12:10:19;;;;;;;19.30;3.97;;;;;;;;;;5005763;28;20450;-85
2022/01/17 12:13:06;;;;;;;22.03;6.07;;;;;;;;;;5004558;28;20473;-85
2022/01/17 12:15:54;;;;;;;22.20;3.63;;;;;;;;;;5004314;28;20449;-85
2022/01/17 12:18:31;;;;;;;9.40;3.07;;;;;;;;;;5006091;28;20456;-85
2022/01/17 12:20:57;;;;;;;16.07;5.47;;;;;;;;;;5005593;28;20547;-85
2022/01/17 12:23:24;;;;;;;25.07;3.50;;;;;;;;;;5002530;28;20500;-85
2022/01/17 12:25:53;;;;;;;14.40;3.73;;;;;;;;;;5004938;28;20593;-85
2022/01/17 12:28:23;;;;;;;27.37;5.37;;;;;;;;;;5003722;28;20505;-86
2022/01/17 12:30:50;;;;;;;22.97;5.43;;;;;;;;;;5005537;28;20549;-85
2022/01/17 12:33:29;;;;;;;6.73;2.40;;;;;;;;;;5004872;28;20511;-85
2022/01/17 12:35:56;;;;;;;16.60;3.30;;;;;;;;;;5004969;28;20822;-85
2022/01/17 12:38:29;;;;;;;17.90;3.90;;;;;;;;;;5005675;28;20442;-85
2022/01/17 12:40:58;;;;;;;19.37;4.53;;;;;;;;;;5004286;28;20497;-85
2022/01/17 12:43:27;;;;;;;15.27;3.43;;;;;;;;;;5005506;28;20454;-86
2022/01/17 12:45:56;;;;;;;17.77;4.00;;;;;;;;;;5001295;28;20461;-86
2022/01/17 12:48:24;;;;;;;14.77;3.90;;;;;;;;;;5004440;28;20489;-86
2022/01/17 12:50:51;;;;;;;13.13;3.33;;;;;;;;;;5004171;28;20508;-85
2022/01/17 12:53:18;;;;;;;24.43;4.40;;;;;;;;;;5006042;28;20501;-86
2022/01/17 12:55:45;;;;;;;13.83;3.80;;;;;;;;;;5006185;28;20513;-85
2022/01/17 12:58:15;;;;;;;11.33;4.10;;;;;;;;;;5004141;28;20486;-85
2022/01/17 13:00:49;;;;;;;17.20;3.63;;;;;;;;;;5000929;28;20465;-86
2022/01/17 13:03:16;;;;;;;18.40;3.40;;;;;;;;;;5003435;28;20462;-86
2022/01/17 13:05:43;;;;;;;15.13;3.20;;;;;;;;;;5001524;28;20454;-85
2022/01/17 13:08:09;;;;;;;12.47;2.90;;;;;;;;;;5006024;28;20512;-85
2022/01/17 13:10:35;;;;;;;14.77;3.00;;;;;;;;;;5005005;28;20443;-85
2022/01/17 13:13:02;;;;;;;16.13;3.70;;;;;;;;;;5003421;28;20577;-85
2022/01/17 13:15:30;;;;;;;8.80;2.73;;;;;;;;;;5002934;28;20445;-85
2022/01/17 13:17:56;;;;;;;26.80;5.30;;;;;;;;;;5003885;28;20971;-86
2022/01/17 13:20:23;;;;;;;22.10;4.60;;;;;;;;;;5002692;28;20496;-85
2022/01/17 13:22:57;;;;;;;16.77;3.60;;;;;;;;;;5002550;28;20486;-85
2022/01/17 13:25:23;;;;;;;10.37;3.17;;;;;;;;;;5004757;28;20457;-86
2022/01/17 13:27:54;;;;;;;20.00;2.40;;;;;;;;;;5002307;28;20475;-85
2022/01/17 13:30:20;;;;;;;15.10;3.73;;;;;;;;;;5001882;28;20457;-85
2022/01/17 13:32:48;;;;;;;13.03;2.97;;;;;;;;;;5002542;28;20483;-86
2022/01/17 13:35:20;;;;;;;11.23;3.70;;;;;;;;;;5003763;28;20454;-86
2022/01/17 13:37:46;;;;;;;26.23;4.13;;;;;;;;;;5004229;28;20474;-86
2022/01/17 13:40:14;;;;;;;14.63;4.97;;;;;;;;;;5003301;28;20481;-85
2022/01/17 13:42:44;;;;;;;13.70;3.90;;;;;;;;;;5002726;28;20489;-85
2022/01/17 13:45:11;;;;;;;16.53;4.97;;;;;;;;;;5005335;28;20971;-86
2022/01/17 13:47:38;;;;;;;9.70;2.80;;;;;;;;;;5006563;28;20478;-86
2022/01/17 13:50:06;;;;;;;14.23;3.20;;;;;;;;;;5007884;28;21370;-85
2022/01/17 13:52:33;;;;;;;17.20;4.20;;;;;;;;;;5005945;28;20524;-86
2022/01/17 13:54:59;;;;;;;18.33;5.33;;;;;;;;;;5005502;28;20873;-86
2022/01/17 13:57:26;;;;;;;18.03;4.73;;;;;;;;;;5002834;28;20537;-86
2022/01/17 13:59:56;;;;;;;17.83;4.67;;;;;;;;;;5006223;28;20449;-86
2022/01/17 14:02:24;;;;;;;17.40;4.40;;;;;;;;;;5003667;28;20489;-86
2022/01/17 14:04:50;;;;;;;16.70;3.67;;;;;;;;;;5004800;28;20449;-85
2022/01/17 14:07:22;;;;;;;18.10;4.83;;;;;;;;;;5003897;28;20478;-85
2022/01/17 14:09:48;;;;;;;14.20;4.70;;;;;;;;;;5003661;28;20513;-85
2022/01/17 14:12:14;;;;;;;16.43;4.90;;;;;;;;;;5005135;28;20565;-86
2022/01/17 14:14:46;;;;;;;20.37;5.63;;;;;;;;;;5007247;28;20944;-86
2022/01/17 14:17:21;;;;;;;20.60;6.07;;;;;;;;;;5001646;28;20540;-86
2022/01/17 14:19:47;;;;;;;22.07;4.50;;;;;;;;;;5004395;28;20444;-85
2022/01/17 14:22:14;;;;;;;16.80;6.60;;;;;;;;;;5001284;28;20486;-85
2022/01/17 14:24:43;;;;;;;18.60;4.47;;;;;;;;;;5001840;28;20450;-86
2022/01/17 14:27:14;;;;;;;14.57;4.57;;;;;;;;;;5001133;28;20948;-86
2022/01/17 14:29:42;;;;;;;23.07;5.37;;;;;;;;;;5004710;28;20488;-85
2022/01/17 14:32:09;;;;;;;25.90;5.43;;;;;;;;;;5007899;28;20496;-86
2022/01/17 14:34:36;;;;;;;33.63;6.50;;;;;;;;;;5007367;28;21027;-86
2022/01/17 14:37:04;;;;;;;22.63;5.67;;;;;;;;;;5006768;28;20490;-86
2022/01/17 14:39:32;;;;;;;19.77;5.60;;;;;;;;;;5006424;28;20442;-86
2022/01/17 14:42:05;;;;;;;23.83;5.60;;;;;;;;;;5007656;28;20478;-86
2022/01/17 14:44:32;;;;;;;23.90;5.17;;;;;;;;;;5004989;28;20485;-85
2022/01/17 14:47:00;;;;;;;23.63;4.83;;;;;;;;;;5006993;28;20470;-86
2022/01/17 14:49:28;;;;;;;31.33;5.33;;;;;;;;;;5007087;28;20494;-85
2022/01/17 14:51:55;;;;;;;21.33;5.40;;;;;;;;;;5027631;23;20474;-77
2022/01/17 14:54:27;;;;;;;24.93;4.97;;;;;;;;;;4984216;28;20443;-78